sensor_id;sensor_type;location;lat;lon;timestamp;temperature;humidity
12847;DHT22;6492;48.128;8.320;2022-11-11T00:01:26;4.30;78.50
12847;DHT22;6492;48.128;8.320;2022-11-11T00:05:28;4.10;78.30
12847;DHT22;6492;48.128;8.320;2022-11-11T00:09:31;4.00;78.20
12847;DHT22;6492;48.128;8.320;2022-11-11T00:13:35;4.00;78.20
12847;DHT22;6492;48.128;8.320;2022-11-11T00:17:38;3.90;78.10
12847;DHT22;6492;48.128;8.320;2022-11-11T00:21:57;4.00;78.10
12847;DHT22;6492;48.128;8.320;2022-11-11T00:26:18;4.10;78.30
12847;DHT22;6492;48.128;8.320;2022-11-11T00:30:19;4.10;78.30
12847;DHT22;6492;48.128;8.320;2022-11-11T00:34:21;4.20;78.30
12847;DHT22;6492;48.128;8.320;2022-11-11T00:38:23;4.10;78.40
12847;DHT22;6492;48.128;8.320;2022-11-11T00:42:44;4.00;78.20
12847;DHT22;6492;48.128;8.320;2022-11-11T00:46:45;4.00;78.30
12847;DHT22;6492;48.128;8.320;2022-11-11T00:51:20;4.10;78.40
12847;DHT22;6492;48.128;8.320;2022-11-11T00:55:23;4.10;78.40
12847;DHT22;6492;48.128;8.320;2022-11-11T00:59:26;4.10;78.40
12847;DHT22;6492;48.128;8.320;2022-11-11T01:03:28;4.00;78.30
12847;DHT22;6492;48.128;8.320;2022-11-11T01:07:30;4.00;78.30
12847;DHT22;6492;48.128;8.320;2022-11-11T01:11:32;4.00;78.30
12847;DHT22;6492;48.128;8.320;2022-11-11T01:15:35;4.00;78.30
12847;DHT22;6492;48.128;8.320;2022-11-11T01:19:37;4.10;78.40
12847;DHT22;6492;48.128;8.320;2022-11-11T01:23:40;4.30;78.50
12847;DHT22;6492;48.128;8.320;2022-11-11T01:27:42;4.30;78.60
12847;DHT22;6492;48.128;8.320;2022-11-11T01:31:46;4.40;78.60
12847;DHT22;6492;48.128;8.320;2022-11-11T01:35:48;4.30;78.70
12847;DHT22;6492;48.128;8.320;2022-11-11T01:39:50;4.30;78.70
12847;DHT22;6492;48.128;8.320;2022-11-11T01:43:52;4.50;78.70
12847;DHT22;6492;48.128;8.320;2022-11-11T01:47:56;4.40;78.70
12847;DHT22;6492;48.128;8.320;2022-11-11T01:52:18;4.30;78.70
12847;DHT22;6492;48.128;8.320;2022-11-11T01:56:21;4.30;78.60
12847;DHT22;6492;48.128;8.320;2022-11-11T02:00:23;4.30;78.60
12847;DHT22;6492;48.128;8.320;2022-11-11T02:04:26;4.20;78.60
12847;DHT22;6492;48.128;8.320;2022-11-11T02:08:45;4.20;78.60
12847;DHT22;6492;48.128;8.320;2022-11-11T02:12:47;4.20;78.50
12847;DHT22;6492;48.128;8.320;2022-11-11T02:17:08;4.10;78.40
12847;DHT22;6492;48.128;8.320;2022-11-11T02:21:20;3.90;78.20
12847;DHT22;6492;48.128;8.320;2022-11-11T02:25:29;3.70;78.00
12847;DHT22;6492;48.128;8.320;2022-11-11T02:29:32;3.70;77.90
12847;DHT22;6492;48.128;8.320;2022-11-11T02:33:35;3.70;78.00
12847;DHT22;6492;48.128;8.320;2022-11-11T02:37:37;3.70;78.10
12847;DHT22;6492;48.128;8.320;2022-11-11T02:41:46;3.60;77.80
12847;DHT22;6492;48.128;8.320;2022-11-11T02:46:01;3.40;77.50
12847;DHT22;6492;48.128;8.320;2022-11-11T02:50:04;3.20;77.10
12847;DHT22;6492;48.128;8.320;2022-11-11T02:54:06;3.10;77.10
12847;DHT22;6492;48.128;8.320;2022-11-11T02:58:09;3.30;77.40
12847;DHT22;6492;48.128;8.320;2022-11-11T03:02:11;3.60;77.70
12847;DHT22;6492;48.128;8.320;2022-11-11T03:06:13;3.80;78.10
12847;DHT22;6492;48.128;8.320;2022-11-11T03:10:15;3.80;78.20
12847;DHT22;6492;48.128;8.320;2022-11-11T03:14:18;3.50;78.00
12847;DHT22;6492;48.128;8.320;2022-11-11T03:18:20;3.60;77.90
12847;DHT22;6492;48.128;8.320;2022-11-11T03:22:22;4.00;78.10
12847;DHT22;6492;48.128;8.320;2022-11-11T03:26:24;4.30;78.40
12847;DHT22;6492;48.128;8.320;2022-11-11T03:30:28;4.50;78.60
12847;DHT22;6492;48.128;8.320;2022-11-11T03:34:30;4.60;78.70
12847;DHT22;6492;48.128;8.320;2022-11-11T03:38:32;4.80;78.80
12847;DHT22;6492;48.128;8.320;2022-11-11T03:42:33;4.90;79.00
12847;DHT22;6492;48.128;8.320;2022-11-11T03:46:38;4.90;79.20
12847;DHT22;6492;48.128;8.320;2022-11-11T03:50:39;4.80;79.10
12847;DHT22;6492;48.128;8.320;2022-11-11T03:54:41;4.80;79.10
12847;DHT22;6492;48.128;8.320;2022-11-11T03:58:43;4.70;79.10
12847;DHT22;6492;48.128;8.320;2022-11-11T04:02:46;4.60;79.80
12847;DHT22;6492;48.128;8.320;2022-11-11T04:07:06;4.70;79.10
12847;DHT22;6492;48.128;8.320;2022-11-11T04:11:28;4.80;79.10
12847;DHT22;6492;48.128;8.320;2022-11-11T04:15:31;4.90;79.30
12847;DHT22;6492;48.128;8.320;2022-11-11T04:19:51;5.00;79.30
12847;DHT22;6492;48.128;8.320;2022-11-11T04:24:22;5.00;79.30
12847;DHT22;6492;48.128;8.320;2022-11-11T04:28:44;4.90;79.20
12847;DHT22;6492;48.128;8.320;2022-11-11T04:33:03;4.90;79.10
12847;DHT22;6492;48.128;8.320;2022-11-11T04:37:06;4.70;78.40
12847;DHT22;6492;48.128;8.320;2022-11-11T04:41:09;4.60;78.20
12847;DHT22;6492;48.128;8.320;2022-11-11T04:45:12;4.50;77.90
12847;DHT22;6492;48.128;8.320;2022-11-11T04:49:30;4.50;77.90
12847;DHT22;6492;48.128;8.320;2022-11-11T04:53:33;4.40;77.70
12847;DHT22;6492;48.128;8.320;2022-11-11T04:57:38;4.60;77.60
12847;DHT22;6492;48.128;8.320;2022-11-11T05:01:39;4.40;77.40
12847;DHT22;6492;48.128;8.320;2022-11-11T05:05:59;4.40;77.60
12847;DHT22;6492;48.128;8.320;2022-11-11T05:10:20;4.50;77.80
12847;DHT22;6492;48.128;8.320;2022-11-11T05:14:22;4.60;77.70
12847;DHT22;6492;48.128;8.320;2022-11-11T05:18:41;4.80;77.80
12847;DHT22;6492;48.128;8.320;2022-11-11T05:23:00;5.10;77.50
12847;DHT22;6492;48.128;8.320;2022-11-11T05:27:03;5.10;76.10
12847;DHT22;6492;48.128;8.320;2022-11-11T05:31:04;5.20;74.00
12847;DHT22;6492;48.128;8.320;2022-11-11T05:35:07;5.20;72.10
12847;DHT22;6492;48.128;8.320;2022-11-11T05:39:09;5.20;70.90
12847;DHT22;6492;48.128;8.320;2022-11-11T05:43:12;5.10;69.90
12847;DHT22;6492;48.128;8.320;2022-11-11T05:47:14;5.00;69.10
12847;DHT22;6492;48.128;8.320;2022-11-11T05:51:16;5.00;69.30
12847;DHT22;6492;48.128;8.320;2022-11-11T05:55:27;4.90;68.70
12847;DHT22;6492;48.128;8.320;2022-11-11T05:59:31;4.70;68.10
12847;DHT22;6492;48.128;8.320;2022-11-11T06:03:33;4.50;68.30
12847;DHT22;6492;48.128;8.320;2022-11-11T06:07:37;4.30;68.70
12847;DHT22;6492;48.128;8.320;2022-11-11T06:11:39;4.40;70.60
12847;DHT22;6492;48.128;8.320;2022-11-11T06:15:42;4.30;70.10
12847;DHT22;6492;48.128;8.320;2022-11-11T06:19:44;4.20;69.50
12847;DHT22;6492;48.128;8.320;2022-11-11T06:23:46;4.10;70.60
12847;DHT22;6492;48.128;8.320;2022-11-11T06:27:48;4.20;71.60
12847;DHT22;6492;48.128;8.320;2022-11-11T06:31:51;4.20;71.70
12847;DHT22;6492;48.128;8.320;2022-11-11T06:35:53;4.20;71.60
12847;DHT22;6492;48.128;8.320;2022-11-11T06:39:56;4.10;71.40
12847;DHT22;6492;48.128;8.320;2022-11-11T06:43:58;3.90;70.90
12847;DHT22;6492;48.128;8.320;2022-11-11T06:48:01;3.80;70.90
12847;DHT22;6492;48.128;8.320;2022-11-11T06:52:03;3.70;71.00
12847;DHT22;6492;48.128;8.320;2022-11-11T06:56:06;3.60;71.00
12847;DHT22;6492;48.128;8.320;2022-11-11T07:00:09;3.60;71.50
12847;DHT22;6492;48.128;8.320;2022-11-11T07:04:13;3.60;72.40
12847;DHT22;6492;48.128;8.320;2022-11-11T07:08:16;3.70;73.30
12847;DHT22;6492;48.128;8.320;2022-11-11T07:12:18;3.80;73.70
12847;DHT22;6492;48.128;8.320;2022-11-11T07:16:20;3.90;74.20
12847;DHT22;6492;48.128;8.320;2022-11-11T07:20:34;4.10;75.00
12847;DHT22;6492;48.128;8.320;2022-11-11T07:24:46;4.20;75.40
12847;DHT22;6492;48.128;8.320;2022-11-11T07:28:48;4.30;76.00
12847;DHT22;6492;48.128;8.320;2022-11-11T07:32:51;4.50;76.30
12847;DHT22;6492;48.128;8.320;2022-11-11T07:36:54;4.60;76.50
12847;DHT22;6492;48.128;8.320;2022-11-11T07:40:57;4.80;77.00
12847;DHT22;6492;48.128;8.320;2022-11-11T07:44:59;5.00;77.30
12847;DHT22;6492;48.128;8.320;2022-11-11T07:49:01;5.20;77.60
12847;DHT22;6492;48.128;8.320;2022-11-11T07:53:04;5.40;77.50
12847;DHT22;6492;48.128;8.320;2022-11-11T07:57:06;5.60;76.90
12847;DHT22;6492;48.128;8.320;2022-11-11T08:01:26;5.80;75.80
12847;DHT22;6492;48.128;8.320;2022-11-11T08:05:28;6.00;72.80
12847;DHT22;6492;48.128;8.320;2022-11-11T08:09:31;6.20;68.60
12847;DHT22;6492;48.128;8.320;2022-11-11T08:13:59;6.40;65.20
12847;DHT22;6492;48.128;8.320;2022-11-11T08:18:00;6.70;61.90
12847;DHT22;6492;48.128;8.320;2022-11-11T08:22:03;6.90;60.00
12847;DHT22;6492;48.128;8.320;2022-11-11T08:26:07;7.10;54.60
12847;DHT22;6492;48.128;8.320;2022-11-11T08:30:10;7.40;48.00
12847;DHT22;6492;48.128;8.320;2022-11-11T08:34:12;7.70;49.00
12847;DHT22;6492;48.128;8.320;2022-11-11T08:38:14;7.90;47.40
12847;DHT22;6492;48.128;8.320;2022-11-11T08:42:18;8.20;40.20
12847;DHT22;6492;48.128;8.320;2022-11-11T08:46:20;8.50;36.60
12847;DHT22;6492;48.128;8.320;2022-11-11T08:50:22;8.80;33.40
12847;DHT22;6492;48.128;8.320;2022-11-11T08:54:34;9.10;29.90
12847;DHT22;6492;48.128;8.320;2022-11-11T08:58:38;9.50;27.20
12847;DHT22;6492;48.128;8.320;2022-11-11T09:02:39;9.90;27.30
12847;DHT22;6492;48.128;8.320;2022-11-11T09:06:49;10.30;24.90
12847;DHT22;6492;48.128;8.320;2022-11-11T09:10:51;10.60;24.40
12847;DHT22;6492;48.128;8.320;2022-11-11T09:14:54;10.90;23.00
12847;DHT22;6492;48.128;8.320;2022-11-11T09:18:56;11.10;20.70
12847;DHT22;6492;48.128;8.320;2022-11-11T09:22:58;11.30;19.70
12847;DHT22;6492;48.128;8.320;2022-11-11T09:26:59;11.50;19.70
12847;DHT22;6492;48.128;8.320;2022-11-11T09:31:03;11.70;18.30
12847;DHT22;6492;48.128;8.320;2022-11-11T09:35:05;11.90;18.00
12847;DHT22;6492;48.128;8.320;2022-11-11T09:39:07;12.20;18.10
12847;DHT22;6492;48.128;8.320;2022-11-11T09:43:16;12.60;19.30
12847;DHT22;6492;48.128;8.320;2022-11-11T09:47:27;12.90;18.40
12847;DHT22;6492;48.128;8.320;2022-11-11T09:51:36;13.20;15.70
12847;DHT22;6492;48.128;8.320;2022-11-11T09:55:43;13.60;15.40
12847;DHT22;6492;48.128;8.320;2022-11-11T09:59:48;14.10;16.50
12847;DHT22;6492;48.128;8.320;2022-11-11T10:03:58;14.50;15.60
12847;DHT22;6492;48.128;8.320;2022-11-11T10:08:04;14.90;14.90
12847;DHT22;6492;48.128;8.320;2022-11-11T10:12:16;15.30;12.10
12847;DHT22;6492;48.128;8.320;2022-11-11T10:16:29;15.60;12.60
12847;DHT22;6492;48.128;8.320;2022-11-11T10:20:35;15.80;9.70
12847;DHT22;6492;48.128;8.320;2022-11-11T10:24:52;16.00;9.10
12847;DHT22;6492;48.128;8.320;2022-11-11T10:29:01;16.30;7.70
12847;DHT22;6492;48.128;8.320;2022-11-11T10:33:10;16.50;5.90
12847;DHT22;6492;48.128;8.320;2022-11-11T10:37:17;16.80;4.70
12847;DHT22;6492;48.128;8.320;2022-11-11T10:41:24;16.70;1.30
12847;DHT22;6492;48.128;8.320;2022-11-11T10:45:32;16.60;1.50
12847;DHT22;6492;48.128;8.320;2022-11-11T10:49:42;16.90;3.80
12847;DHT22;6492;48.128;8.320;2022-11-11T10:54:00;17.10;1.10
12847;DHT22;6492;48.128;8.320;2022-11-11T10:58:10;17.30;1.00
12847;DHT22;6492;48.128;8.320;2022-11-11T11:02:19;17.50;1.00
12847;DHT22;6492;48.128;8.320;2022-11-11T11:06:24;17.60;1.00
12847;DHT22;6492;48.128;8.320;2022-11-11T11:10:34;17.70;1.00
12847;DHT22;6492;48.128;8.320;2022-11-11T11:14:41;17.50;1.00
12847;DHT22;6492;48.128;8.320;2022-11-11T11:19:15;17.40;1.00
12847;DHT22;6492;48.128;8.320;2022-11-11T11:23:34;17.70;1.00
12847;DHT22;6492;48.128;8.320;2022-11-11T11:27:46;17.80;1.00
12847;DHT22;6492;48.128;8.320;2022-11-11T11:31:50;18.00;1.00
12847;DHT22;6492;48.128;8.320;2022-11-11T11:35:51;18.40;1.00
12847;DHT22;6492;48.128;8.320;2022-11-11T11:39:58;18.60;1.00
12847;DHT22;6492;48.128;8.320;2022-11-11T11:44:03;18.80;1.00
12847;DHT22;6492;48.128;8.320;2022-11-11T11:48:32;19.00;1.00
12847;DHT22;6492;48.128;8.320;2022-11-11T11:52:46;19.20;1.00
12847;DHT22;6492;48.128;8.320;2022-11-11T11:56:53;19.40;1.00
12847;DHT22;6492;48.128;8.320;2022-11-11T12:01:03;19.60;1.40
12847;DHT22;6492;48.128;8.320;2022-11-11T12:05:11;19.70;1.60
12847;DHT22;6492;48.128;8.320;2022-11-11T12:09:23;19.70;2.20
12847;DHT22;6492;48.128;8.320;2022-11-11T12:13:36;19.60;2.20
12847;DHT22;6492;48.128;8.320;2022-11-11T12:17:53;19.40;1.00
12847;DHT22;6492;48.128;8.320;2022-11-11T12:22:03;19.30;1.00
12847;DHT22;6492;48.128;8.320;2022-11-11T12:26:11;19.00;1.00
12847;DHT22;6492;48.128;8.320;2022-11-11T12:30:18;18.70;1.10
12847;DHT22;6492;48.128;8.320;2022-11-11T12:34:39;18.50;2.00
12847;DHT22;6492;48.128;8.320;2022-11-11T12:38:51;18.40;2.50
12847;DHT22;6492;48.128;8.320;2022-11-11T12:43:06;18.40;3.20
12847;DHT22;6492;48.128;8.320;2022-11-11T12:47:28;18.20;2.70
12847;DHT22;6492;48.128;8.320;2022-11-11T12:51:48;18.00;4.10
12847;DHT22;6492;48.128;8.320;2022-11-11T12:55:59;17.80;4.50
12847;DHT22;6492;48.128;8.320;2022-11-11T13:00:09;17.70;5.80
12847;DHT22;6492;48.128;8.320;2022-11-11T13:04:29;17.50;7.50
12847;DHT22;6492;48.128;8.320;2022-11-11T13:13:21;17.20;8.40
12847;DHT22;6492;48.128;8.320;2022-11-11T13:17:32;17.20;9.80
12847;DHT22;6492;48.128;8.320;2022-11-11T13:21:40;17.00;8.50
12847;DHT22;6492;48.128;8.320;2022-11-11T13:25:47;17.00;10.10
12847;DHT22;6492;48.128;8.320;2022-11-11T13:30:25;16.70;9.30
12847;DHT22;6492;48.128;8.320;2022-11-11T13:34:51;16.10;10.80
12847;DHT22;6492;48.128;8.320;2022-11-11T13:38:56;16.00;12.80
12847;DHT22;6492;48.128;8.320;2022-11-11T13:43:01;16.00;13.30
12847;DHT22;6492;48.128;8.320;2022-11-11T13:47:06;15.90;13.90
12847;DHT22;6492;48.128;8.320;2022-11-11T13:51:25;16.00;14.10
12847;DHT22;6492;48.128;8.320;2022-11-11T13:55:31;16.00;13.70
12847;DHT22;6492;48.128;8.320;2022-11-11T13:59:38;15.90;13.90
12847;DHT22;6492;48.128;8.320;2022-11-11T14:03:59;15.70;13.70
12847;DHT22;6492;48.128;8.320;2022-11-11T14:08:01;15.70;14.10
12847;DHT22;6492;48.128;8.320;2022-11-11T14:12:35;15.60;14.50
12847;DHT22;6492;48.128;8.320;2022-11-11T14:17:03;15.50;14.70
12847;DHT22;6492;48.128;8.320;2022-11-11T14:21:07;15.30;15.20
12847;DHT22;6492;48.128;8.320;2022-11-11T14:25:29;15.10;16.00
12847;DHT22;6492;48.128;8.320;2022-11-11T14:29:46;14.80;16.60
12847;DHT22;6492;48.128;8.320;2022-11-11T14:33:53;14.60;17.20
12847;DHT22;6492;48.128;8.320;2022-11-11T14:38:20;14.30;18.00
12847;DHT22;6492;48.128;8.320;2022-11-11T14:42:54;14.00;18.90
12847;DHT22;6492;48.128;8.320;2022-11-11T14:47:24;13.70;20.60
12847;DHT22;6492;48.128;8.320;2022-11-11T14:51:50;13.20;22.70
12847;DHT22;6492;48.128;8.320;2022-11-11T14:55:53;12.80;25.50
12847;DHT22;6492;48.128;8.320;2022-11-11T14:59:56;12.40;27.10
12847;DHT22;6492;48.128;8.320;2022-11-11T15:04:02;12.00;28.20
12847;DHT22;6492;48.128;8.320;2022-11-11T15:08:15;11.80;29.30
12847;DHT22;6492;48.128;8.320;2022-11-11T15:12:29;11.50;30.60
12847;DHT22;6492;48.128;8.320;2022-11-11T15:16:50;11.20;31.30
12847;DHT22;6492;48.128;8.320;2022-11-11T15:21:02;11.00;31.90
12847;DHT22;6492;48.128;8.320;2022-11-11T15:25:19;10.70;32.50
12847;DHT22;6492;48.128;8.320;2022-11-11T15:34:05;10.10;34.20
12847;DHT22;6492;48.128;8.320;2022-11-11T15:38:13;9.80;36.50
12847;DHT22;6492;48.128;8.320;2022-11-11T15:42:34;9.40;36.50
12847;DHT22;6492;48.128;8.320;2022-11-11T15:46:40;9.10;38.30
12847;DHT22;6492;48.128;8.320;2022-11-11T15:50:55;8.80;40.80
12847;DHT22;6492;48.128;8.320;2022-11-11T15:54:58;8.50;43.90
12847;DHT22;6492;48.128;8.320;2022-11-11T15:59:17;8.30;49.00
12847;DHT22;6492;48.128;8.320;2022-11-11T16:03:30;8.00;50.70
12847;DHT22;6492;48.128;8.320;2022-11-11T16:07:35;7.70;51.00
12847;DHT22;6492;48.128;8.320;2022-11-11T16:11:58;7.50;51.10
12847;DHT22;6492;48.128;8.320;2022-11-11T16:16:03;7.20;52.40
12847;DHT22;6492;48.128;8.320;2022-11-11T16:20:12;7.20;57.70
12847;DHT22;6492;48.128;8.320;2022-11-11T16:24:25;7.10;60.70
12847;DHT22;6492;48.128;8.320;2022-11-11T16:28:37;7.00;62.10
12847;DHT22;6492;48.128;8.320;2022-11-11T16:32:40;6.80;62.20
12847;DHT22;6492;48.128;8.320;2022-11-11T16:36:57;6.60;62.90
12847;DHT22;6492;48.128;8.320;2022-11-11T16:40:59;6.50;65.00
12847;DHT22;6492;48.128;8.320;2022-11-11T16:45:02;6.50;66.80
12847;DHT22;6492;48.128;8.320;2022-11-11T16:49:15;6.30;65.70
12847;DHT22;6492;48.128;8.320;2022-11-11T16:53:26;6.00;64.80
12847;DHT22;6492;48.128;8.320;2022-11-11T16:57:42;5.70;64.10
12847;DHT22;6492;48.128;8.320;2022-11-11T17:01:47;5.50;64.20
12847;DHT22;6492;48.128;8.320;2022-11-11T17:05:53;5.30;64.70
12847;DHT22;6492;48.128;8.320;2022-11-11T17:10:13;5.10;65.60
12847;DHT22;6492;48.128;8.320;2022-11-11T17:14:15;5.10;66.40
12847;DHT22;6492;48.128;8.320;2022-11-11T17:18:17;4.90;66.60
12847;DHT22;6492;48.128;8.320;2022-11-11T17:22:30;4.90;67.70
12847;DHT22;6492;48.128;8.320;2022-11-11T17:26:32;5.00;68.90
12847;DHT22;6492;48.128;8.320;2022-11-11T17:30:34;5.00;69.60
12847;DHT22;6492;48.128;8.320;2022-11-11T17:34:45;5.00;69.50
12847;DHT22;6492;48.128;8.320;2022-11-11T17:38:48;4.90;69.30
12847;DHT22;6492;48.128;8.320;2022-11-11T17:42:49;4.80;69.50
12847;DHT22;6492;48.128;8.320;2022-11-11T17:46:51;4.70;69.90
12847;DHT22;6492;48.128;8.320;2022-11-11T17:51:02;4.70;70.50
12847;DHT22;6492;48.128;8.320;2022-11-11T17:55:07;4.90;72.30
12847;DHT22;6492;48.128;8.320;2022-11-11T17:59:09;5.20;73.70
12847;DHT22;6492;48.128;8.320;2022-11-11T18:03:10;5.30;74.20
12847;DHT22;6492;48.128;8.320;2022-11-11T18:07:19;5.30;74.00
12847;DHT22;6492;48.128;8.320;2022-11-11T18:11:22;5.10;73.20
12847;DHT22;6492;48.128;8.320;2022-11-11T18:15:28;4.90;72.70
12847;DHT22;6492;48.128;8.320;2022-11-11T18:19:45;4.90;73.30
12847;DHT22;6492;48.128;8.320;2022-11-11T18:23:46;4.80;73.30
12847;DHT22;6492;48.128;8.320;2022-11-11T18:27:52;4.70;73.20
12847;DHT22;6492;48.128;8.320;2022-11-11T18:31:54;4.70;73.50
12847;DHT22;6492;48.128;8.320;2022-11-11T18:36:02;4.80;74.10
12847;DHT22;6492;48.128;8.320;2022-11-11T18:40:05;4.80;74.20
12847;DHT22;6492;48.128;8.320;2022-11-11T18:44:08;4.70;74.20
12847;DHT22;6492;48.128;8.320;2022-11-11T18:48:10;4.70;74.40
12847;DHT22;6492;48.128;8.320;2022-11-11T18:52:12;4.60;73.90
12847;DHT22;6492;48.128;8.320;2022-11-11T18:56:15;4.40;73.40
12847;DHT22;6492;48.128;8.320;2022-11-11T19:00:19;4.20;73.10
12847;DHT22;6492;48.128;8.320;2022-11-11T19:04:21;4.10;73.20
12847;DHT22;6492;48.128;8.320;2022-11-11T19:08:22;4.00;73.30
12847;DHT22;6492;48.128;8.320;2022-11-11T19:12:24;3.90;73.30
12847;DHT22;6492;48.128;8.320;2022-11-11T19:16:27;3.80;73.40
12847;DHT22;6492;48.128;8.320;2022-11-11T19:20:29;3.70;73.30
12847;DHT22;6492;48.128;8.320;2022-11-11T19:24:31;3.60;73.20
12847;DHT22;6492;48.128;8.320;2022-11-11T19:28:34;3.50;73.30
12847;DHT22;6492;48.128;8.320;2022-11-11T19:32:37;3.60;73.50
12847;DHT22;6492;48.128;8.320;2022-11-11T19:36:41;3.50;73.70
12847;DHT22;6492;48.128;8.320;2022-11-11T19:40:45;3.50;74.10
12847;DHT22;6492;48.128;8.320;2022-11-11T19:44:47;3.80;75.00
12847;DHT22;6492;48.128;8.320;2022-11-11T19:48:52;3.90;75.80
12847;DHT22;6492;48.128;8.320;2022-11-11T19:52:54;3.90;75.50
12847;DHT22;6492;48.128;8.320;2022-11-11T19:56:56;3.80;74.80
12847;DHT22;6492;48.128;8.320;2022-11-11T20:01:07;3.80;74.40
12847;DHT22;6492;48.128;8.320;2022-11-11T20:05:10;3.60;73.50
12847;DHT22;6492;48.128;8.320;2022-11-11T20:09:16;3.50;72.60
12847;DHT22;6492;48.128;8.320;2022-11-11T20:13:18;3.30;72.10
12847;DHT22;6492;48.128;8.320;2022-11-11T20:17:19;3.30;71.80
12847;DHT22;6492;48.128;8.320;2022-11-11T20:21:23;3.10;71.50
12847;DHT22;6492;48.128;8.320;2022-11-11T20:25:25;3.00;71.30
12847;DHT22;6492;48.128;8.320;2022-11-11T20:29:26;3.00;71.80
12847;DHT22;6492;48.128;8.320;2022-11-11T20:33:38;3.00;71.80
12847;DHT22;6492;48.128;8.320;2022-11-11T20:37:42;3.00;72.60
12847;DHT22;6492;48.128;8.320;2022-11-11T20:41:43;3.00;72.60
12847;DHT22;6492;48.128;8.320;2022-11-11T20:45:45;3.00;72.70
12847;DHT22;6492;48.128;8.320;2022-11-11T20:49:47;3.10;73.20
12847;DHT22;6492;48.128;8.320;2022-11-11T20:53:53;3.10;73.20
12847;DHT22;6492;48.128;8.320;2022-11-11T20:57:55;3.00;73.00
12847;DHT22;6492;48.128;8.320;2022-11-11T21:01:57;2.90;72.60
12847;DHT22;6492;48.128;8.320;2022-11-11T21:06:03;2.90;72.50
12847;DHT22;6492;48.128;8.320;2022-11-11T21:10:07;2.90;73.00
12847;DHT22;6492;48.128;8.320;2022-11-11T21:14:09;2.90;73.10
12847;DHT22;6492;48.128;8.320;2022-11-11T21:18:10;2.80;73.10
12847;DHT22;6492;48.128;8.320;2022-11-11T21:22:12;2.90;73.10
12847;DHT22;6492;48.128;8.320;2022-11-11T21:26:17;2.80;72.90
12847;DHT22;6492;48.128;8.320;2022-11-11T21:30:19;2.80;73.10
12847;DHT22;6492;48.128;8.320;2022-11-11T21:34:21;2.80;73.40
12847;DHT22;6492;48.128;8.320;2022-11-11T21:38:23;2.80;73.70
12847;DHT22;6492;48.128;8.320;2022-11-11T21:42:26;2.80;73.70
12847;DHT22;6492;48.128;8.320;2022-11-11T21:46:31;2.70;73.50
12847;DHT22;6492;48.128;8.320;2022-11-11T21:50:33;2.70;73.40
12847;DHT22;6492;48.128;8.320;2022-11-11T21:54:35;2.60;73.10
12847;DHT22;6492;48.128;8.320;2022-11-11T21:58:39;2.50;73.00
12847;DHT22;6492;48.128;8.320;2022-11-11T22:02:41;2.50;73.20
12847;DHT22;6492;48.128;8.320;2022-11-11T22:06:43;2.50;73.40
12847;DHT22;6492;48.128;8.320;2022-11-11T22:10:45;2.50;74.40
12847;DHT22;6492;48.128;8.320;2022-11-11T22:14:48;2.50;73.90
12847;DHT22;6492;48.128;8.320;2022-11-11T22:18:55;2.90;74.20
12847;DHT22;6492;48.128;8.320;2022-11-11T22:22:57;2.50;74.00
12847;DHT22;6492;48.128;8.320;2022-11-11T22:26:59;2.50;74.10
12847;DHT22;6492;48.128;8.320;2022-11-11T22:31:15;2.50;74.20
12847;DHT22;6492;48.128;8.320;2022-11-11T22:35:17;2.60;74.50
12847;DHT22;6492;48.128;8.320;2022-11-11T22:39:19;2.70;75.50
12847;DHT22;6492;48.128;8.320;2022-11-11T22:43:21;2.80;75.00
12847;DHT22;6492;48.128;8.320;2022-11-11T22:47:30;2.90;75.50
12847;DHT22;6492;48.128;8.320;2022-11-11T22:51:32;3.20;75.80
12847;DHT22;6492;48.128;8.320;2022-11-11T22:55:34;3.20;75.80
12847;DHT22;6492;48.128;8.320;2022-11-11T22:59:36;3.20;75.60
12847;DHT22;6492;48.128;8.320;2022-11-11T23:03:41;3.20;75.20
12847;DHT22;6492;48.128;8.320;2022-11-11T23:07:43;3.10;74.80
12847;DHT22;6492;48.128;8.320;2022-11-11T23:11:45;3.10;74.60
12847;DHT22;6492;48.128;8.320;2022-11-11T23:15:51;3.10;74.20
12847;DHT22;6492;48.128;8.320;2022-11-11T23:19:55;3.20;73.80
12847;DHT22;6492;48.128;8.320;2022-11-11T23:23:57;3.20;72.90
12847;DHT22;6492;48.128;8.320;2022-11-11T23:27:59;3.20;71.30
12847;DHT22;6492;48.128;8.320;2022-11-11T23:32:01;3.10;70.00
12847;DHT22;6492;48.128;8.320;2022-11-11T23:36:06;3.10;69.10
12847;DHT22;6492;48.128;8.320;2022-11-11T23:40:09;3.10;67.80
12847;DHT22;6492;48.128;8.320;2022-11-11T23:44:11;3.10;67.00
12847;DHT22;6492;48.128;8.320;2022-11-11T23:48:13;3.10;64.50
12847;DHT22;6492;48.128;8.320;2022-11-11T23:52:16;3.10;63.00
12847;DHT22;6492;48.128;8.320;2022-11-11T23:56:18;3.00;62.40
